sensor_id;sensor_type;location;lat;lon;timestamp;pressure;altitude;pressure_sealevel;temperature;humidity
12360;BME280;6244;51.460;7.090;2022-09-17T00:00:38;97889.56;;;6.78;87.15
12360;BME280;6244;51.460;7.090;2022-09-17T00:05:37;97892.25;;;6.77;87.24
12360;BME280;6244;51.460;7.090;2022-09-17T00:10:37;97889.34;;;6.67;87.08
12360;BME280;6244;51.460;7.090;2022-09-17T00:15:40;97896.41;;;6.65;87.35
12360;BME280;6244;51.460;7.090;2022-09-17T00:20:37;97901.59;;;6.65;87.59
12360;BME280;6244;51.460;7.090;2022-09-17T00:25:36;97896.41;;;6.65;87.26
12360;BME280;6244;51.460;7.090;2022-09-17T00:30:33;97890.09;;;6.69;87.47
12360;BME280;6244;51.460;7.090;2022-09-17T00:35:31;97892.03;;;6.66;87.52
12360;BME280;6244;51.460;7.090;2022-09-17T00:40:27;97888.78;;;6.62;87.62
12360;BME280;6244;51.460;7.090;2022-09-17T00:45:24;97895.09;;;6.58;87.67
12360;BME280;6244;51.460;7.090;2022-09-17T00:50:26;97887.94;;;6.62;87.96
12360;BME280;6244;51.460;7.090;2022-09-17T00:55:27;97894.66;;;6.66;87.81
12360;BME280;6244;51.460;7.090;2022-09-17T01:00:25;97905.44;;;6.74;87.88
12360;BME280;6244;51.460;7.090;2022-09-17T01:05:27;97905.38;;;6.75;87.77
12360;BME280;6244;51.460;7.090;2022-09-17T01:10:38;97904.34;;;6.78;87.84
12360;BME280;6244;51.460;7.090;2022-09-17T01:15:41;97906.00;;;6.79;87.77
12360;BME280;6244;51.460;7.090;2022-09-17T01:26:51;97911.50;;;6.59;87.71
12360;BME280;6244;51.460;7.090;2022-09-17T01:31:58;97901.28;;;6.56;87.83
12360;BME280;6244;51.460;7.090;2022-09-17T01:37:03;97910.38;;;6.49;87.78
12360;BME280;6244;51.460;7.090;2022-09-17T01:42:08;97905.28;;;6.47;87.76
12360;BME280;6244;51.460;7.090;2022-09-17T01:47:11;97920.03;;;6.47;87.66
12360;BME280;6244;51.460;7.090;2022-09-17T01:52:13;97908.81;;;6.46;88.08
12360;BME280;6244;51.460;7.090;2022-09-17T01:57:13;97914.75;;;6.48;87.88
12360;BME280;6244;51.460;7.090;2022-09-17T02:02:15;97912.00;;;6.65;87.94
12360;BME280;6244;51.460;7.090;2022-09-17T02:07:16;97919.38;;;6.73;88.07
12360;BME280;6244;51.460;7.090;2022-09-17T02:12:17;97922.47;;;6.79;88.27
12360;BME280;6244;51.460;7.090;2022-09-17T02:17:21;97924.03;;;6.82;88.24
12360;BME280;6244;51.460;7.090;2022-09-17T02:22:23;97926.91;;;6.77;88.14
12360;BME280;6244;51.460;7.090;2022-09-17T02:27:28;97923.41;;;6.92;87.89
12360;BME280;6244;51.460;7.090;2022-09-17T02:32:30;97917.56;;;6.89;88.00
12360;BME280;6244;51.460;7.090;2022-09-17T02:37:27;97927.75;;;6.78;88.00
12360;BME280;6244;51.460;7.090;2022-09-17T02:42:30;97927.94;;;6.75;87.89
12360;BME280;6244;51.460;7.090;2022-09-17T02:47:48;97923.75;;;6.72;87.95
12360;BME280;6244;51.460;7.090;2022-09-17T02:52:57;97930.72;;;6.72;88.08
12360;BME280;6244;51.460;7.090;2022-09-17T02:58:04;97936.78;;;6.86;88.13
12360;BME280;6244;51.460;7.090;2022-09-17T03:03:07;97936.97;;;6.83;87.96
12360;BME280;6244;51.460;7.090;2022-09-17T03:08:07;97938.69;;;6.69;87.93
12360;BME280;6244;51.460;7.090;2022-09-17T03:13:04;97943.59;;;6.59;88.10
12360;BME280;6244;51.460;7.090;2022-09-17T03:18:01;97947.44;;;6.68;87.92
12360;BME280;6244;51.460;7.090;2022-09-17T03:22:58;97938.53;;;6.72;88.00
12360;BME280;6244;51.460;7.090;2022-09-17T03:27:55;97936.41;;;6.78;87.89
12360;BME280;6244;51.460;7.090;2022-09-17T03:32:51;97940.94;;;6.75;87.97
12360;BME280;6244;51.460;7.090;2022-09-17T03:37:48;97938.84;;;6.81;87.87
12360;BME280;6244;51.460;7.090;2022-09-17T03:42:46;97942.97;;;6.99;87.95
12360;BME280;6244;51.460;7.090;2022-09-17T03:47:42;97954.69;;;7.06;87.30
12360;BME280;6244;51.460;7.090;2022-09-17T03:52:39;97955.53;;;7.07;87.17
12360;BME280;6244;51.460;7.090;2022-09-17T03:57:35;97958.13;;;7.07;86.77
12360;BME280;6244;51.460;7.090;2022-09-17T04:02:33;97960.66;;;7.08;86.69
12360;BME280;6244;51.460;7.090;2022-09-17T04:07:30;97955.72;;;7.04;86.57
12360;BME280;6244;51.460;7.090;2022-09-17T04:12:26;97954.88;;;7.03;85.94
12360;BME280;6244;51.460;7.090;2022-09-17T04:17:22;97957.66;;;7.00;85.97
12360;BME280;6244;51.460;7.090;2022-09-17T04:22:20;97960.88;;;6.90;85.72
12360;BME280;6244;51.460;7.090;2022-09-17T04:27:17;97959.56;;;6.83;86.03
12360;BME280;6244;51.460;7.090;2022-09-17T04:32:13;97964.78;;;6.83;86.16
12360;BME280;6244;51.460;7.090;2022-09-17T04:37:10;97965.72;;;6.96;86.23
12360;BME280;6244;51.460;7.090;2022-09-17T04:42:08;97964.88;;;6.95;86.00
12360;BME280;6244;51.460;7.090;2022-09-17T04:47:04;97966.22;;;7.02;85.75
12360;BME280;6244;51.460;7.090;2022-09-17T04:52:01;97966.03;;;7.05;85.50
12360;BME280;6244;51.460;7.090;2022-09-17T04:56:58;97975.16;;;7.12;85.34
12360;BME280;6244;51.460;7.090;2022-09-17T05:01:55;97978.78;;;7.24;84.85
12360;BME280;6244;51.460;7.090;2022-09-17T05:06:52;97974.78;;;7.18;84.90
12360;BME280;6244;51.460;7.090;2022-09-17T05:11:48;97985.38;;;7.15;84.82
12360;BME280;6244;51.460;7.090;2022-09-17T05:16:45;97993.06;;;7.03;84.94
12360;BME280;6244;51.460;7.090;2022-09-17T05:21:43;97995.13;;;6.98;85.19
12360;BME280;6244;51.460;7.090;2022-09-17T05:26:39;98005.47;;;7.13;84.80
12360;BME280;6244;51.460;7.090;2022-09-17T05:31:36;98004.84;;;7.24;84.71
12360;BME280;6244;51.460;7.090;2022-09-17T05:36:32;98010.53;;;7.30;84.12
12360;BME280;6244;51.460;7.090;2022-09-17T05:41:30;98003.38;;;7.34;84.20
12360;BME280;6244;51.460;7.090;2022-09-17T05:46:27;98002.00;;;7.43;83.99
12360;BME280;6244;51.460;7.090;2022-09-17T05:51:23;98009.63;;;7.60;83.53
12360;BME280;6244;51.460;7.090;2022-09-17T05:56:19;98010.22;;;7.65;83.32
12360;BME280;6244;51.460;7.090;2022-09-17T06:01:19;98020.16;;;7.58;83.18
12360;BME280;6244;51.460;7.090;2022-09-17T06:06:16;98020.72;;;7.63;83.01
12360;BME280;6244;51.460;7.090;2022-09-17T06:11:12;98025.19;;;7.61;82.86
12360;BME280;6244;51.460;7.090;2022-09-17T06:16:08;98043.25;;;7.64;82.76
12360;BME280;6244;51.460;7.090;2022-09-17T06:21:06;98045.09;;;7.62;83.01
12360;BME280;6244;51.460;7.090;2022-09-17T06:26:04;98053.09;;;7.59;83.48
12360;BME280;6244;51.460;7.090;2022-09-17T06:31:02;98061.59;;;7.63;83.54
12360;BME280;6244;51.460;7.090;2022-09-17T06:36:01;98059.06;;;7.61;83.49
12360;BME280;6244;51.460;7.090;2022-09-17T06:41:00;98076.09;;;7.53;84.14
12360;BME280;6244;51.460;7.090;2022-09-17T06:45:57;98063.47;;;7.31;84.75
12360;BME280;6244;51.460;7.090;2022-09-17T06:50:55;98064.00;;;7.22;85.31
12360;BME280;6244;51.460;7.090;2022-09-17T06:55:57;98052.78;;;7.06;85.26
12360;BME280;6244;51.460;7.090;2022-09-17T07:00:58;98059.69;;;7.07;85.35
12360;BME280;6244;51.460;7.090;2022-09-17T07:05:56;98063.44;;;7.17;85.63
12360;BME280;6244;51.460;7.090;2022-09-17T07:10:54;98066.31;;;7.42;85.12
12360;BME280;6244;51.460;7.090;2022-09-17T07:15:53;98064.84;;;7.66;84.63
12360;BME280;6244;51.460;7.090;2022-09-17T07:20:56;98058.16;;;7.90;84.14
12360;BME280;6244;51.460;7.090;2022-09-17T07:25:53;98068.41;;;8.35;83.43
12360;BME280;6244;51.460;7.090;2022-09-17T07:30:50;98075.56;;;9.13;81.14
12360;BME280;6244;51.460;7.090;2022-09-17T07:35:51;98080.19;;;9.22;80.38
12360;BME280;6244;51.460;7.090;2022-09-17T07:40:55;98088.97;;;10.48;78.11
12360;BME280;6244;51.460;7.090;2022-09-17T07:45:52;98086.88;;;9.90;78.02
12360;BME280;6244;51.460;7.090;2022-09-17T07:50:49;98085.88;;;11.14;77.63
12360;BME280;6244;51.460;7.090;2022-09-17T07:55:50;98110.41;;;13.47;87.95
12360;BME280;6244;51.460;7.090;2022-09-17T08:00:48;98106.84;;;12.06;85.12
12360;BME280;6244;51.460;7.090;2022-09-17T08:05:45;98106.63;;;12.31;86.39
12360;BME280;6244;51.460;7.090;2022-09-17T08:10:42;98125.72;;;13.94;94.02
12360;BME280;6244;51.460;7.090;2022-09-17T08:15:39;98111.28;;;12.50;81.24
12360;BME280;6244;51.460;7.090;2022-09-17T08:20:37;98121.94;;;12.70;82.71
12360;BME280;6244;51.460;7.090;2022-09-17T08:25:33;98135.03;;;15.09;81.23
12360;BME280;6244;51.460;7.090;2022-09-17T08:30:30;98148.78;;;17.46;68.27
12360;BME280;6244;51.460;7.090;2022-09-17T08:35:27;98152.53;;;19.58;62.06
12360;BME280;6244;51.460;7.090;2022-09-17T08:40:25;98166.91;;;20.53;54.61
12360;BME280;6244;51.460;7.090;2022-09-17T08:45:22;98160.03;;;19.62;49.75
12360;BME280;6244;51.460;7.090;2022-09-17T08:50:28;98147.97;;;19.34;54.73
12360;BME280;6244;51.460;7.090;2022-09-17T08:55:36;98150.09;;;18.89;52.35
12360;BME280;6244;51.460;7.090;2022-09-17T09:00:38;98156.00;;;18.50;55.70
12360;BME280;6244;51.460;7.090;2022-09-17T09:05:41;98157.41;;;17.04;62.14
12360;BME280;6244;51.460;7.090;2022-09-17T09:10:46;98142.19;;;16.23;67.44
12360;BME280;6244;51.460;7.090;2022-09-17T09:15:48;98139.56;;;16.04;65.99
12360;BME280;6244;51.460;7.090;2022-09-17T09:20:52;98156.38;;;17.59;59.16
12360;BME280;6244;51.460;7.090;2022-09-17T09:26:01;98151.63;;;18.66;55.01
12360;BME280;6244;51.460;7.090;2022-09-17T09:31:07;98173.34;;;20.75;44.44
12360;BME280;6244;51.460;7.090;2022-09-17T09:36:11;98145.84;;;17.22;54.35
12360;BME280;6244;51.460;7.090;2022-09-17T09:41:12;98132.75;;;16.20;67.03
12360;BME280;6244;51.460;7.090;2022-09-17T09:46:35;98158.09;;;18.21;55.22
12360;BME280;6244;51.460;7.090;2022-09-17T09:51:48;98137.06;;;16.02;59.35
12360;BME280;6244;51.460;7.090;2022-09-17T09:56:55;98156.59;;;18.18;53.08
12360;BME280;6244;51.460;7.090;2022-09-17T10:01:53;98136.38;;;15.91;61.74
12360;BME280;6244;51.460;7.090;2022-09-17T10:06:51;98133.34;;;13.56;73.59
12360;BME280;6244;51.460;7.090;2022-09-17T10:12:15;98137.50;;;15.50;74.05
12360;BME280;6244;51.460;7.090;2022-09-17T10:17:18;98160.19;;;18.52;54.49
12360;BME280;6244;51.460;7.090;2022-09-17T10:22:23;98142.22;;;17.68;55.37
12360;BME280;6244;51.460;7.090;2022-09-17T10:27:23;98155.41;;;19.97;47.30
12360;BME280;6244;51.460;7.090;2022-09-17T10:32:21;98155.47;;;21.46;43.02
12360;BME280;6244;51.460;7.090;2022-09-17T10:37:32;98163.34;;;22.38;39.72
12360;BME280;6244;51.460;7.090;2022-09-17T10:42:30;98133.28;;;18.47;45.96
12360;BME280;6244;51.460;7.090;2022-09-17T10:47:29;98134.56;;;16.66;57.96
12360;BME280;6244;51.460;7.090;2022-09-17T10:52:28;98166.69;;;13.56;70.33
12360;BME280;6244;51.460;7.090;2022-09-17T10:57:38;98125.00;;;10.80;59.54
12360;BME280;6244;51.460;7.090;2022-09-17T11:03:03;98107.16;;;9.74;70.94
12360;BME280;6244;51.460;7.090;2022-09-17T11:08:08;98109.97;;;9.59;74.89
12360;BME280;6244;51.460;7.090;2022-09-17T11:13:18;98134.16;;;9.36;75.85
12360;BME280;6244;51.460;7.090;2022-09-17T11:18:41;98113.59;;;8.50;76.75
12360;BME280;6244;51.460;7.090;2022-09-17T11:24:01;98102.03;;;7.98;78.76
12360;BME280;6244;51.460;7.090;2022-09-17T11:29:18;98081.06;;;7.85;80.45
12360;BME280;6244;51.460;7.090;2022-09-17T11:34:28;98088.47;;;9.02;80.78
12360;BME280;6244;51.460;7.090;2022-09-17T11:39:32;98107.94;;;12.26;76.50
12360;BME280;6244;51.460;7.090;2022-09-17T11:44:37;98119.63;;;14.14;77.47
12360;BME280;6244;51.460;7.090;2022-09-17T11:49:41;98086.69;;;12.62;79.99
12360;BME280;6244;51.460;7.090;2022-09-17T11:54:46;98078.63;;;10.93;76.90
12360;BME280;6244;51.460;7.090;2022-09-17T11:59:50;98084.19;;;10.65;75.25
12360;BME280;6244;51.460;7.090;2022-09-17T12:04:53;98109.63;;;14.08;84.16
12360;BME280;6244;51.460;7.090;2022-09-17T12:10:01;98106.59;;;15.32;91.81
12360;BME280;6244;51.460;7.090;2022-09-17T12:15:03;98116.13;;;16.47;87.80
12360;BME280;6244;51.460;7.090;2022-09-17T12:20:05;98118.09;;;16.36;80.97
12360;BME280;6244;51.460;7.090;2022-09-17T12:25:03;98127.63;;;15.71;79.68
12360;BME280;6244;51.460;7.090;2022-09-17T12:30:05;98108.63;;;13.05;67.81
12360;BME280;6244;51.460;7.090;2022-09-17T12:35:15;98096.31;;;11.84;64.56
12360;BME280;6244;51.460;7.090;2022-09-17T12:40:20;98093.41;;;11.42;65.46
12360;BME280;6244;51.460;7.090;2022-09-17T12:45:31;98088.28;;;11.40;65.74
12360;BME280;6244;51.460;7.090;2022-09-17T12:50:40;98079.41;;;12.65;66.43
12360;BME280;6244;51.460;7.090;2022-09-17T13:01:12;98059.00;;;12.25;63.69
12360;BME280;6244;51.460;7.090;2022-09-17T13:06:37;98062.59;;;13.11;67.78
12360;BME280;6244;51.460;7.090;2022-09-17T13:12:01;98055.44;;;13.02;67.50
12360;BME280;6244;51.460;7.090;2022-09-17T13:17:05;98069.69;;;13.31;73.98
12360;BME280;6244;51.460;7.090;2022-09-17T13:22:05;98058.44;;;13.29;68.66
12360;BME280;6244;51.460;7.090;2022-09-17T13:27:04;98068.38;;;13.77;76.00
12360;BME280;6244;51.460;7.090;2022-09-17T13:32:01;98057.19;;;13.44;73.85
12360;BME280;6244;51.460;7.090;2022-09-17T13:37:00;98046.78;;;14.04;77.66
12360;BME280;6244;51.460;7.090;2022-09-17T13:42:00;98057.84;;;13.98;74.91
12360;BME280;6244;51.460;7.090;2022-09-17T13:47:09;98087.78;;;13.13;62.09
12360;BME280;6244;51.460;7.090;2022-09-17T13:52:08;98103.50;;;10.88;70.38
12360;BME280;6244;51.460;7.090;2022-09-17T13:57:08;98081.09;;;9.48;76.07
12360;BME280;6244;51.460;7.090;2022-09-17T14:07:44;98069.31;;;8.89;80.96
12360;BME280;6244;51.460;7.090;2022-09-17T14:12:51;98064.56;;;9.47;81.91
12360;BME280;6244;51.460;7.090;2022-09-17T14:17:48;98057.78;;;10.07;79.30
12360;BME280;6244;51.460;7.090;2022-09-17T14:22:55;98067.38;;;10.80;79.53
12360;BME280;6244;51.460;7.090;2022-09-17T14:27:56;98074.22;;;10.94;77.44
12360;BME280;6244;51.460;7.090;2022-09-17T14:33:01;98072.06;;;11.12;76.82
12360;BME280;6244;51.460;7.090;2022-09-17T14:38:08;98062.13;;;10.80;77.26
12360;BME280;6244;51.460;7.090;2022-09-17T14:43:16;98056.44;;;10.86;77.25
12360;BME280;6244;51.460;7.090;2022-09-17T14:48:26;98064.56;;;10.71;77.46
12360;BME280;6244;51.460;7.090;2022-09-17T14:53:25;98062.72;;;10.60;77.47
12360;BME280;6244;51.460;7.090;2022-09-17T14:58:29;98059.25;;;10.96;77.97
12360;BME280;6244;51.460;7.090;2022-09-17T15:03:28;98068.03;;;11.88;76.36
12360;BME280;6244;51.460;7.090;2022-09-17T15:08:26;98068.28;;;12.18;76.29
12360;BME280;6244;51.460;7.090;2022-09-17T15:13:28;98063.78;;;12.20;76.87
12360;BME280;6244;51.460;7.090;2022-09-17T15:18:37;98071.50;;;12.43;76.58
12360;BME280;6244;51.460;7.090;2022-09-17T15:23:37;98073.28;;;12.65;77.98
12360;BME280;6244;51.460;7.090;2022-09-17T15:28:35;98079.03;;;12.59;80.38
12360;BME280;6244;51.460;7.090;2022-09-17T15:33:34;98072.72;;;12.39;78.94
12360;BME280;6244;51.460;7.090;2022-09-17T15:38:30;98076.75;;;11.88;78.84
12360;BME280;6244;51.460;7.090;2022-09-17T15:43:31;98089.44;;;11.36;77.61
12360;BME280;6244;51.460;7.090;2022-09-17T15:48:36;98100.22;;;10.61;78.11
12360;BME280;6244;51.460;7.090;2022-09-17T15:53:34;98083.72;;;9.73;75.64
12360;BME280;6244;51.460;7.090;2022-09-17T15:58:35;98079.63;;;9.56;76.12
12360;BME280;6244;51.460;7.090;2022-09-17T16:04:04;98084.72;;;9.45;76.89
12360;BME280;6244;51.460;7.090;2022-09-17T16:09:02;98087.63;;;9.28;77.29
12360;BME280;6244;51.460;7.090;2022-09-17T16:14:00;98099.28;;;9.10;77.30
12360;BME280;6244;51.460;7.090;2022-09-17T16:18:57;98087.69;;;8.87;77.18
12360;BME280;6244;51.460;7.090;2022-09-17T16:23:54;98093.63;;;8.89;78.72
12360;BME280;6244;51.460;7.090;2022-09-17T16:28:53;98098.63;;;9.06;78.21
12360;BME280;6244;51.460;7.090;2022-09-17T16:33:51;98098.13;;;9.14;78.96
12360;BME280;6244;51.460;7.090;2022-09-17T16:38:49;98112.91;;;9.28;77.44
12360;BME280;6244;51.460;7.090;2022-09-17T16:43:45;98108.19;;;9.20;77.07
12360;BME280;6244;51.460;7.090;2022-09-17T16:48:42;98112.16;;;9.13;76.99
12360;BME280;6244;51.460;7.090;2022-09-17T16:53:41;98111.97;;;9.29;76.88
12360;BME280;6244;51.460;7.090;2022-09-17T16:58:38;98104.66;;;9.34;77.25
12360;BME280;6244;51.460;7.090;2022-09-17T17:03:35;98109.94;;;9.46;77.21
12360;BME280;6244;51.460;7.090;2022-09-17T17:08:32;98112.09;;;9.40;76.66
12360;BME280;6244;51.460;7.090;2022-09-17T17:13:30;98116.03;;;9.20;76.86
12360;BME280;6244;51.460;7.090;2022-09-17T17:18:27;98125.19;;;8.86;76.76
12360;BME280;6244;51.460;7.090;2022-09-17T17:23:23;98126.81;;;8.61;77.63
12360;BME280;6244;51.460;7.090;2022-09-17T17:28:20;98116.84;;;8.39;78.21
12360;BME280;6244;51.460;7.090;2022-09-17T17:33:18;98114.28;;;8.25;79.07
12360;BME280;6244;51.460;7.090;2022-09-17T17:38:15;98112.66;;;8.09;79.31
12360;BME280;6244;51.460;7.090;2022-09-17T17:43:12;98113.00;;;8.03;79.70
12360;BME280;6244;51.460;7.090;2022-09-17T17:48:09;98117.19;;;7.91;79.85
12360;BME280;6244;51.460;7.090;2022-09-17T17:53:07;98116.91;;;7.82;80.39
12360;BME280;6244;51.460;7.090;2022-09-17T17:58:03;98124.00;;;7.80;80.74
12360;BME280;6244;51.460;7.090;2022-09-17T18:03:00;98117.75;;;7.82;81.18
12360;BME280;6244;51.460;7.090;2022-09-17T18:07:56;98118.88;;;7.92;81.38
12360;BME280;6244;51.460;7.090;2022-09-17T18:12:54;98119.72;;;8.07;80.74
12360;BME280;6244;51.460;7.090;2022-09-17T18:17:51;98125.31;;;8.01;80.95
12360;BME280;6244;51.460;7.090;2022-09-17T18:22:48;98132.00;;;7.91;80.78
12360;BME280;6244;51.460;7.090;2022-09-17T18:27:45;98133.41;;;7.96;80.54
12360;BME280;6244;51.460;7.090;2022-09-17T18:32:46;98138.44;;;7.99;80.39
12360;BME280;6244;51.460;7.090;2022-09-17T18:37:42;98150.56;;;8.00;80.78
12360;BME280;6244;51.460;7.090;2022-09-17T18:42:39;98153.28;;;8.13;80.41
12360;BME280;6244;51.460;7.090;2022-09-17T18:47:35;98150.09;;;8.08;80.40
12360;BME280;6244;51.460;7.090;2022-09-17T18:52:34;98158.31;;;8.16;79.75
12360;BME280;6244;51.460;7.090;2022-09-17T18:57:30;98155.28;;;8.23;79.25
12360;BME280;6244;51.460;7.090;2022-09-17T19:02:27;98163.00;;;8.39;78.87
12360;BME280;6244;51.460;7.090;2022-09-17T19:07:23;98163.28;;;8.48;78.54
12360;BME280;6244;51.460;7.090;2022-09-17T19:12:21;98170.53;;;8.57;78.18
12360;BME280;6244;51.460;7.090;2022-09-17T19:17:17;98167.94;;;8.57;77.96
12360;BME280;6244;51.460;7.090;2022-09-17T19:22:14;98166.63;;;8.64;77.45
12360;BME280;6244;51.460;7.090;2022-09-17T19:27:12;98185.16;;;8.74;77.63
12360;BME280;6244;51.460;7.090;2022-09-17T19:32:10;98185.91;;;8.76;77.89
12360;BME280;6244;51.460;7.090;2022-09-17T19:37:06;98187.44;;;8.66;78.53
12360;BME280;6244;51.460;7.090;2022-09-17T19:42:03;98181.81;;;8.58;78.71
12360;BME280;6244;51.460;7.090;2022-09-17T19:47:00;98176.78;;;8.55;78.85
12360;BME280;6244;51.460;7.090;2022-09-17T19:51:58;98192.66;;;8.52;79.98
12360;BME280;6244;51.460;7.090;2022-09-17T19:56:54;98196.91;;;8.25;80.93
12360;BME280;6244;51.460;7.090;2022-09-17T20:01:51;98180.69;;;7.76;81.89
12360;BME280;6244;51.460;7.090;2022-09-17T20:06:47;98198.16;;;7.74;83.54
12360;BME280;6244;51.460;7.090;2022-09-17T20:11:45;98196.69;;;7.70;84.30
12360;BME280;6244;51.460;7.090;2022-09-17T20:16:42;98186.88;;;7.44;84.85
12360;BME280;6244;51.460;7.090;2022-09-17T20:21:39;98175.84;;;7.09;85.43
12360;BME280;6244;51.460;7.090;2022-09-17T20:26:36;98172.25;;;6.96;85.99
12360;BME280;6244;51.460;7.090;2022-09-17T20:31:34;98171.06;;;6.86;86.08
12360;BME280;6244;51.460;7.090;2022-09-17T20:36:32;98156.97;;;6.75;86.45
12360;BME280;6244;51.460;7.090;2022-09-17T20:41:30;98159.97;;;6.67;86.51
12360;BME280;6244;51.460;7.090;2022-09-17T20:46:28;98166.28;;;6.63;86.62
12360;BME280;6244;51.460;7.090;2022-09-17T20:51:28;98170.63;;;6.63;86.61
12360;BME280;6244;51.460;7.090;2022-09-17T20:56:26;98169.03;;;6.76;86.72
12360;BME280;6244;51.460;7.090;2022-09-17T21:01:24;98180.56;;;6.87;86.86
12360;BME280;6244;51.460;7.090;2022-09-17T21:06:29;98171.50;;;6.94;86.62
12360;BME280;6244;51.460;7.090;2022-09-17T21:11:26;98178.03;;;7.01;86.27
12360;BME280;6244;51.460;7.090;2022-09-17T21:16:23;98181.66;;;7.14;85.61
12360;BME280;6244;51.460;7.090;2022-09-17T21:21:20;98176.00;;;7.22;85.64
12360;BME280;6244;51.460;7.090;2022-09-17T21:26:19;98185.41;;;7.24;85.19
12360;BME280;6244;51.460;7.090;2022-09-17T21:31:17;98182.38;;;7.32;84.98
12360;BME280;6244;51.460;7.090;2022-09-17T21:36:15;98180.72;;;7.31;85.10
12360;BME280;6244;51.460;7.090;2022-09-17T21:41:14;98180.72;;;7.31;84.96
12360;BME280;6244;51.460;7.090;2022-09-17T21:46:14;98182.63;;;7.27;85.16
12360;BME280;6244;51.460;7.090;2022-09-17T21:51:12;98185.84;;;7.32;85.42
12360;BME280;6244;51.460;7.090;2022-09-17T21:56:10;98190.88;;;7.35;85.20
12360;BME280;6244;51.460;7.090;2022-09-17T22:01:10;98199.75;;;7.31;85.63
12360;BME280;6244;51.460;7.090;2022-09-17T22:06:10;98193.97;;;7.42;85.17
12360;BME280;6244;51.460;7.090;2022-09-17T22:11:09;98206.41;;;7.37;85.09
12360;BME280;6244;51.460;7.090;2022-09-17T22:16:07;98203.91;;;7.35;85.37
12360;BME280;6244;51.460;7.090;2022-09-17T22:21:12;98196.94;;;7.36;85.54
12360;BME280;6244;51.460;7.090;2022-09-17T22:26:10;98196.00;;;7.37;85.56
12360;BME280;6244;51.460;7.090;2022-09-17T22:31:09;98197.31;;;7.44;85.76
12360;BME280;6244;51.460;7.090;2022-09-17T22:36:07;98192.94;;;7.45;85.47
12360;BME280;6244;51.460;7.090;2022-09-17T22:41:07;98191.53;;;7.39;85.34
12360;BME280;6244;51.460;7.090;2022-09-17T22:46:11;98193.28;;;7.38;85.41
12360;BME280;6244;51.460;7.090;2022-09-17T22:51:08;98194.47;;;7.33;85.54
12360;BME280;6244;51.460;7.090;2022-09-17T22:56:08;98199.75;;;7.31;85.57
12360;BME280;6244;51.460;7.090;2022-09-17T23:01:06;98186.81;;;7.30;85.69
12360;BME280;6244;51.460;7.090;2022-09-17T23:06:07;98191.72;;;7.36;85.85
12360;BME280;6244;51.460;7.090;2022-09-17T23:11:06;98189.84;;;7.38;85.88
12360;BME280;6244;51.460;7.090;2022-09-17T23:16:05;98179.94;;;7.29;85.87
12360;BME280;6244;51.460;7.090;2022-09-17T23:21:05;98173.97;;;7.27;85.92
12360;BME280;6244;51.460;7.090;2022-09-17T23:26:03;98173.25;;;7.25;86.13
12360;BME280;6244;51.460;7.090;2022-09-17T23:31:06;98163.16;;;7.19;86.19
12360;BME280;6244;51.460;7.090;2022-09-17T23:36:04;98173.50;;;7.20;86.26
12360;BME280;6244;51.460;7.090;2022-09-17T23:41:12;98164.84;;;7.20;86.16
12360;BME280;6244;51.460;7.090;2022-09-17T23:46:11;98168.03;;;7.25;86.31
12360;BME280;6244;51.460;7.090;2022-09-17T23:51:09;98177.69;;;7.23;86.26
12360;BME280;6244;51.460;7.090;2022-09-17T23:56:11;98174.06;;;7.25;86.23
